Time;durP1;ratioP1;P1;durP2;ratioP2;P2;SDS_P1;SDS_P2;PMS_P1;PMS_P2;Temp;Humidity;BMP_temperature;BMP_pressure;BME280_temperature;BME280_humidity;BME280_pressure;Samples;Min_cycle;Max_cycle;Signal;HPM_P1;HPM_P2
2022/01/17 00:01:36;;;;;;;5.57;1.73;;;;;;;-3.85;68.06;98046.25;5069261;28;20029;-72
2022/01/17 00:04:01;;;;;;;3.22;1.40;;;;;;;-3.85;68.10;98038.41;5067941;28;20028;-72
2022/01/17 00:06:27;;;;;;;4.72;1.23;;;;;;;-3.91;67.94;98021.25;5068732;28;20092;-72
2022/01/17 00:08:53;;;;;;;4.80;1.50;;;;;;;-3.89;67.53;98027.25;5069971;28;20455;-72
2022/01/17 00:11:19;;;;;;;5.47;1.52;;;;;;;-4.11;67.64;97978.66;5070113;28;20036;-73
2022/01/17 00:13:47;;;;;;;4.30;1.50;;;;;;;-4.02;67.79;97993.03;5071280;28;20036;-73
2022/01/17 00:16:18;;;;;;;5.10;1.30;;;;;;;-3.91;67.76;97992.47;5070492;28;20489;-72
2022/01/17 00:21:14;;;;;;;5.15;1.67;;;;;;;-4.20;67.23;97930.31;5049439;28;20056;-70
2022/01/17 00:23:40;;;;;;;7.25;1.88;;;;;;;-4.03;67.31;97939.06;5051922;28;20468;-71
2022/01/17 00:26:06;;;;;;;5.40;1.83;;;;;;;-3.86;67.62;97966.94;5052928;28;20544;-74
2022/01/17 00:28:32;;;;;;;5.25;1.65;;;;;;;-3.78;67.52;97969.16;5053980;28;20033;-71
2022/01/17 00:30:59;;;;;;;3.90;1.20;;;;;;;-3.85;67.31;97939.03;5054141;28;20068;-70
2022/01/17 00:33:25;;;;;;;7.68;1.60;;;;;;;-3.69;67.71;97960.81;5054342;28;20120;-72
2022/01/17 00:35:50;;;;;;;4.43;1.52;;;;;;;-3.77;66.95;97908.09;5036133;28;20071;-71
2022/01/17 00:38:16;;;;;;;6.53;1.77;;;;;;;-3.57;66.66;97925.31;5036116;28;20031;-72
2022/01/17 00:40:42;;;;;;;7.07;1.50;;;;;;;-3.43;66.59;97921.97;5054216;28;20421;-70
2022/01/17 00:43:09;;;;;;;6.00;1.40;;;;;;;-3.30;66.30;97921.31;5052928;28;20029;-74
2022/01/17 00:45:38;;;;;;;4.45;1.23;;;;;;;-3.29;65.96;97897.66;5054128;28;20053;-73
2022/01/17 00:48:03;;;;;;;2.85;1.38;;;;;;;-3.12;65.65;97901.13;5052301;28;20064;-73
2022/01/17 00:50:31;;;;;;;9.90;1.73;;;;;;;-3.07;65.41;97886.84;5035684;28;20068;-73
2022/01/17 00:53:01;;;;;;;6.35;1.08;;;;;;;-3.15;64.84;97859.41;5053524;28;20485;-71
2022/01/17 00:55:26;;;;;;;3.65;1.38;;;;;;;-2.96;65.01;97888.00;5053754;28;20041;-72
2022/01/17 00:57:52;;;;;;;4.97;1.48;;;;;;;-3.14;65.01;97848.84;5052213;28;20479;-71
2022/01/17 01:00:17;;;;;;;7.25;1.65;;;;;;;-2.97;64.95;97874.09;5086381;28;20067;-72
2022/01/17 01:02:43;;;;;;;4.40;1.52;;;;;;;-3.10;64.63;97842.53;5035445;28;20029;-71
2022/01/17 01:05:09;;;;;;;6.30;1.70;;;;;;;-2.88;64.28;97859.63;5053569;28;20217;-71
2022/01/17 01:07:35;;;;;;;5.47;1.48;;;;;;;-2.86;64.09;97852.53;5035558;28;20052;-71
2022/01/17 01:12:26;;;;;;;6.47;1.35;;;;;;;-2.69;63.78;97853.31;5053157;28;20118;-72
2022/01/17 01:14:52;;;;;;;6.72;1.50;;;;;;;-2.85;63.87;97820.16;5052703;28;20079;-73
2022/01/17 01:17:35;;;;;;;4.88;1.27;;;;;;;-3.17;63.67;97754.78;5085147;28;20386;-70
2022/01/17 01:28:18;;;;;;;4.95;1.40;;;;;;;-2.49;62.64;97803.19;5052794;28;19912;-70
2022/01/17 01:30:48;;;;;;;5.15;1.25;;;;;;;-2.55;62.95;97790.47;5053644;28;20497;-71
2022/01/17 01:33:22;;;;;;;4.82;1.20;;;;;;;-2.48;62.85;97804.88;5052650;28;20040;-71
2022/01/17 01:35:49;;;;;;;1.70;0.80;;;;;;;-2.39;62.38;97803.50;5050512;28;20040;-71
2022/01/17 01:38:14;;;;;;;2.60;1.10;;;;;;;-2.38;62.11;97799.09;5053066;28;20403;-72
2022/01/17 01:40:40;;;;;;;3.05;1.25;;;;;;;-2.41;62.06;97794.03;5051807;28;20058;-72
2022/01/17 01:43:06;;;;;;;5.75;1.05;;;;;;;-2.42;62.50;97792.34;5051993;28;20032;-72
2022/01/17 01:45:31;;;;;;;4.45;1.13;;;;;;;-2.39;62.02;97784.31;5053505;28;20029;-72
2022/01/17 01:47:57;;;;;;;3.40;1.20;;;;;;;-2.46;62.81;97768.13;5053817;28;20102;-71
2022/01/17 01:50:23;;;;;;;3.85;1.33;;;;;;;-2.43;62.32;97773.16;5051768;28;20028;-73
2022/01/17 01:52:49;;;;;;;4.57;1.42;;;;;;;-2.37;62.29;97771.97;5052176;28;20067;-72
2022/01/17 01:55:17;;;;;;;4.13;1.25;;;;;;;-2.43;62.23;97754.81;5051131;28;20068;-73
2022/01/17 01:57:44;;;;;;;4.43;1.25;;;;;;;-2.50;61.98;97736.00;5085215;28;20474;-72
2022/01/17 02:00:12;;;;;;;2.53;1.15;;;;;;;-2.35;61.80;97762.22;5084800;28;20029;-73
2022/01/17 02:02:38;;;;;;;5.45;1.20;;;;;;;-2.32;61.43;97751.53;5050931;28;20039;-72
2022/01/17 02:05:04;;;;;;;5.00;1.33;;;;;;;-2.37;61.48;97743.13;5052418;28;20029;-71
2022/01/17 02:07:31;;;;;;;6.38;1.92;;;;;;;-2.43;61.92;97717.28;5052972;28;20095;-72
2022/01/17 02:09:57;;;;;;;2.88;1.38;;;;;;;-2.38;61.60;97723.94;5052006;28;20029;-67
2022/01/17 02:12:23;;;;;;;4.13;1.40;;;;;;;-2.43;61.69;97709.41;5070689;28;20062;-72
2022/01/17 02:14:50;;;;;;;5.47;1.30;;;;;;;-2.37;61.90;97698.56;5069055;28;20111;-71
2022/01/17 02:17:16;;;;;;;3.45;1.40;;;;;;;-2.35;61.73;97705.38;5085309;28;20044;-72
2022/01/17 02:19:46;;;;;;;5.00;1.10;;;;;;;-2.39;61.61;97692.59;5051278;28;20032;-71
2022/01/17 02:22:14;;;;;;;4.80;0.95;;;;;;;-2.51;61.41;97666.19;5051905;28;20032;-69
2022/01/17 02:24:39;;;;;;;5.53;1.00;;;;;;;-2.37;61.17;97681.06;5050298;28;20467;-70
2022/01/17 02:27:05;;;;;;;4.38;1.08;;;;;;;-2.35;61.66;97667.88;5051008;28;20021;-69
2022/01/17 02:29:30;;;;;;;3.80;1.25;;;;;;;-2.33;61.49;97671.22;5051954;28;20033;-67
2022/01/17 02:31:56;;;;;;;1.60;0.80;;;;;;;-2.33;61.47;97660.75;5051746;28;20024;-73
2022/01/17 02:34:22;;;;;;;1.98;1.13;;;;;;;-2.30;60.78;97650.06;5051480;28;20112;-72
2022/01/17 02:36:47;;;;;;;2.88;1.08;;;;;;;-2.30;60.76;97650.06;5050815;28;20514;-72
2022/01/17 02:39:15;;;;;;;5.03;1.02;;;;;;;-2.30;60.99;97644.81;5051674;28;20029;-72
2022/01/17 02:41:43;;;;;;;5.90;1.15;;;;;;;-2.28;60.79;97640.31;5051603;28;20036;-73
2022/01/17 02:44:10;;;;;;;4.18;1.33;;;;;;;-2.25;61.02;97639.28;5051328;28;20033;-72
2022/01/17 02:46:36;;;;;;;4.78;1.10;;;;;;;-2.27;61.08;97647.25;5066641;28;20033;-73
2022/01/17 02:49:03;;;;;;;3.60;1.10;;;;;;;-2.33;60.83;97618.81;5051255;28;20072;-72
2022/01/17 02:51:29;;;;;;;3.83;1.05;;;;;;;-2.28;61.07;97608.03;5051131;28;20317;-71
2022/01/17 02:53:55;;;;;;;5.18;1.15;;;;;;;-2.20;60.78;97624.09;5051189;28;20106;-72
2022/01/17 02:56:22;;;;;;;5.22;1.17;;;;;;;-2.19;60.88;97618.75;5051612;28;20109;-72
2022/01/17 02:58:48;;;;;;;2.67;1.00;;;;;;;-2.18;60.86;97619.59;5051110;28;20512;-71
2022/01/17 03:01:15;;;;;;;4.28;1.48;;;;;;;-2.16;60.63;97609.88;5050871;28;20053;-70
2022/01/17 03:03:42;;;;;;;2.17;1.10;;;;;;;-2.15;60.52;97613.34;5051762;28;20163;-71
2022/01/17 03:06:09;;;;;;;6.95;1.27;;;;;;;-2.18;60.93;97617.81;5053522;28;20431;-73
2022/01/17 03:08:36;;;;;;;4.18;1.27;;;;;;;-2.12;60.85;97613.13;5051826;28;20032;-71
2022/01/17 03:11:05;;;;;;;3.45;1.20;;;;;;;-2.10;60.77;97613.88;5052035;28;20103;-71
2022/01/17 03:13:33;;;;;;;3.17;1.27;;;;;;;-2.13;60.65;97604.41;5032968;28;20037;-68
2022/01/17 03:16:07;;;;;;;3.60;1.27;;;;;;;-2.13;60.77;97593.09;5051462;28;20032;-72
2022/01/17 03:18:36;;;;;;;5.25;1.27;;;;;;;-2.08;60.67;97597.09;5051206;28;20142;-71
2022/01/17 03:21:03;;;;;;;4.05;1.23;;;;;;;-2.09;60.73;97590.16;5050974;28;20103;-71
2022/01/17 03:23:29;;;;;;;2.90;1.20;;;;;;;-2.08;61.03;97589.22;5051180;28;20056;-72
2022/01/17 03:25:55;;;;;;;6.18;1.45;;;;;;;-2.27;60.70;97555.50;5051268;28;20059;-69
2022/01/17 03:28:21;;;;;;;5.13;1.50;;;;;;;-2.07;60.73;97579.59;5050692;28;20047;-71
2022/01/17 03:30:47;;;;;;;7.53;1.88;;;;;;;-2.23;60.81;97540.44;5066281;28;20105;-71
2022/01/17 03:33:15;;;;;;;3.85;1.30;;;;;;;-2.08;60.23;97565.63;5051239;28;20485;-70
2022/01/17 03:35:41;;;;;;;7.35;1.60;;;;;;;-2.12;61.01;97572.00;5051377;28;20091;-69
2022/01/17 03:38:10;;;;;;;4.80;1.55;;;;;;;-2.11;60.81;97559.75;5050534;28;20109;-70
2022/01/17 03:40:36;;;;;;;5.53;1.30;;;;;;;-2.19;60.41;97561.06;5050751;28;20024;-69
2022/01/17 03:43:03;;;;;;;5.25;1.80;;;;;;;-2.24;60.94;97557.09;5050168;28;20025;-68
2022/01/17 03:45:28;;;;;;;4.15;1.50;;;;;;;-2.26;61.17;97554.56;5051416;28;20040;-70
2022/01/17 03:47:54;;;;;;;4.80;1.33;;;;;;;-2.27;60.77;97542.41;5049537;28;20030;-71
2022/01/17 03:50:21;;;;;;;3.95;1.40;;;;;;;-2.30;60.95;97529.50;5050789;28;20036;-72
2022/01/17 03:52:48;;;;;;;2.92;1.20;;;;;;;-2.26;60.72;97533.59;5051390;28;20099;-72
2022/01/17 03:55:16;;;;;;;4.22;1.48;;;;;;;-2.27;60.89;97524.06;5050935;28;20146;-70
2022/01/17 03:57:44;;;;;;;7.45;1.70;;;;;;;-2.24;60.85;97509.91;5051020;28;20033;-70
2022/01/17 04:00:14;;;;;;;4.57;1.20;;;;;;;-2.14;60.65;97508.34;5054476;28;20029;-71
2022/01/17 04:02:40;;;;;;;4.72;1.50;;;;;;;-2.20;60.87;97511.38;5053668;28;20075;-71
2022/01/17 04:05:06;;;;;;;5.93;1.60;;;;;;;-2.17;60.91;97511.19;5053714;28;20215;-72
2022/01/17 04:07:32;;;;;;;4.47;1.75;;;;;;;-2.21;60.94;97492.19;5054727;28;20040;-71
2022/01/17 04:09:58;;;;;;;4.60;1.55;;;;;;;-2.19;60.48;97508.66;5054395;28;20029;-70
2022/01/17 04:12:23;;;;;;;5.72;1.70;;;;;;;-2.20;61.00;97487.78;5054831;28;20029;-70
2022/01/17 04:14:53;;;;;;;5.25;1.50;;;;;;;-2.15;60.94;97493.56;5054601;28;20033;-70
2022/01/17 04:17:19;;;;;;;6.75;1.83;;;;;;;-2.15;60.82;97477.00;5053866;28;20036;-71
2022/01/17 04:19:48;;;;;;;4.25;1.27;;;;;;;-2.12;60.85;97458.44;5086241;28;20408;-71
2022/01/17 04:22:14;;;;;;;3.95;1.42;;;;;;;-2.09;60.84;97458.25;5054458;28;20031;-72
2022/01/17 04:24:40;;;;;;;5.43;1.45;;;;;;;-2.08;60.73;97463.38;5086526;28;20115;-71
2022/01/17 04:27:05;;;;;;;4.72;1.35;;;;;;;-2.06;60.53;97458.84;5053484;28;20141;-72
2022/01/17 04:29:31;;;;;;;3.60;1.45;;;;;;;-2.04;60.57;97453.53;5053944;28;20024;-73
2022/01/17 04:31:56;;;;;;;4.68;1.40;;;;;;;-2.08;60.17;97431.91;5054569;28;20033;-71
2022/01/17 04:34:22;;;;;;;3.58;1.50;;;;;;;-2.04;60.75;97427.31;5086377;28;20040;-71
2022/01/17 04:36:48;;;;;;;3.05;1.60;;;;;;;-2.07;60.59;97422.28;5053698;28;20474;-71
2022/01/17 04:39:16;;;;;;;4.40;1.60;;;;;;;-2.07;60.78;97415.22;5053914;28;20455;-73
2022/01/17 04:41:42;;;;;;;5.13;1.50;;;;;;;-2.06;60.31;97401.16;5053529;28;20490;-70
2022/01/17 04:46:51;;;;;;;5.22;1.92;;;;;;;-2.14;61.21;97393.00;5051980;28;20119;-72
2022/01/17 04:49:17;;;;;;;4.53;1.48;;;;;;;-2.16;61.11;97400.13;5053462;28;20167;-72
2022/01/17 04:51:42;;;;;;;5.72;1.42;;;;;;;-2.15;60.97;97390.50;5069212;28;20020;-72
2022/01/17 04:56:53;;;;;;;4.55;1.48;;;;;;;-2.38;62.97;97375.38;5053614;28;20029;-72
2022/01/17 04:59:18;;;;;;;5.50;1.67;;;;;;;-2.35;63.09;97380.41;5053513;28;20040;-71
2022/01/17 05:01:44;;;;;;;5.82;1.50;;;;;;;-2.34;62.74;97370.75;5052047;28;20154;-71
2022/01/17 05:04:09;;;;;;;5.30;1.90;;;;;;;-2.52;63.61;97354.50;5053557;28;20466;-68
2022/01/17 05:06:35;;;;;;;2.85;1.42;;;;;;;-2.53;63.58;97366.75;5053650;28;20076;-69
2022/01/17 05:09:03;;;;;;;7.72;2.13;;;;;;;-2.55;63.97;97368.63;5052708;28;20033;-69
2022/01/17 05:11:30;;;;;;;6.55;1.70;;;;;;;-2.55;63.96;97358.16;5053377;28;20424;-70
2022/01/17 05:13:56;;;;;;;5.40;1.63;;;;;;;-2.59;64.13;97356.69;5053301;28;20463;-70
2022/01/17 05:16:30;;;;;;;6.38;1.80;;;;;;;-2.65;65.02;97350.06;5052949;28;20053;-70
2022/01/17 05:21:39;;;;;;;5.20;1.35;;;;;;;-2.82;64.81;97313.69;5053630;28;20047;-68
2022/01/17 05:24:05;;;;;;;6.55;1.65;;;;;;;-2.67;65.17;97325.75;5052993;28;20033;-69
2022/01/17 05:26:30;;;;;;;5.85;1.88;;;;;;;-2.71;64.68;97331.31;5052859;28;20376;-67
2022/01/17 05:28:56;;;;;;;3.40;1.52;;;;;;;-2.69;64.79;97330.28;5053590;28;20115;-68
2022/01/17 05:31:21;;;;;;;4.72;1.70;;;;;;;-2.66;64.39;97316.09;5052705;28;20494;-70
2022/01/17 05:33:47;;;;;;;6.68;1.95;;;;;;;-2.66;65.05;97314.34;5052072;28;20430;-69
2022/01/17 05:36:12;;;;;;;5.55;1.83;;;;;;;-2.65;64.75;97316.03;5052342;28;20040;-70
2022/01/17 05:38:38;;;;;;;7.25;1.85;;;;;;;-2.68;65.22;97310.13;5052801;28;20481;-71
2022/01/17 05:41:03;;;;;;;7.20;2.17;;;;;;;-2.69;65.45;97301.47;5051159;28;20033;-72
2022/01/17 05:43:29;;;;;;;8.40;2.15;;;;;;;-2.68;65.68;97294.41;5051957;28;20040;-71
2022/01/17 05:45:54;;;;;;;4.47;1.95;;;;;;;-2.63;65.53;97293.19;5052367;28;20037;-72
2022/01/17 05:48:20;;;;;;;5.20;1.92;;;;;;;-2.65;65.34;97286.38;5051132;28;20120;-71
2022/01/17 05:50:45;;;;;;;5.35;1.38;;;;;;;-2.63;65.57;97279.25;5052224;28;20398;-73
2022/01/17 05:53:11;;;;;;;5.07;1.67;;;;;;;-2.61;65.61;97280.00;5052051;28;20489;-70
2022/01/17 05:55:37;;;;;;;7.10;1.95;;;;;;;-2.64;66.17;97269.72;5050772;28;20041;-71
2022/01/17 05:58:04;;;;;;;6.90;1.83;;;;;;;-2.65;66.28;97274.13;5052467;28;20049;-71
2022/01/17 06:00:29;;;;;;;5.55;2.15;;;;;;;-2.76;66.34;97245.22;5052795;28;20040;-72
2022/01/17 06:02:55;;;;;;;5.00;1.70;;;;;;;-2.67;66.34;97243.72;5052064;28;20441;-73
2022/01/17 06:05:20;;;;;;;4.90;2.10;;;;;;;-2.62;66.56;97231.16;5051679;28;20061;-72
2022/01/17 06:07:46;;;;;;;3.85;2.13;;;;;;;-2.58;66.04;97214.28;5051858;28;20404;-70
2022/01/17 06:10:11;;;;;;;6.25;2.45;;;;;;;-2.58;65.68;97203.81;5051851;28;20087;-69
2022/01/17 06:12:37;;;;;;;6.95;2.45;;;;;;;-2.60;66.17;97187.34;5052010;28;20045;-69
2022/01/17 06:15:04;;;;;;;6.90;2.50;;;;;;;-2.60;66.77;97176.88;5051861;28;20143;-69
2022/01/17 06:17:29;;;;;;;6.70;2.40;;;;;;;-2.62;66.74;97178.78;5051968;28;20021;-70
2022/01/17 06:19:55;;;;;;;5.50;2.13;;;;;;;-2.54;66.28;97238.47;5050900;28;20094;-70
2022/01/17 06:22:20;;;;;;;11.15;3.15;;;;;;;-2.52;66.27;97247.91;5051007;28;20025;-67
2022/01/17 06:24:46;;;;;;;11.40;2.95;;;;;;;-2.49;66.47;97268.66;5051502;28;20131;-68
2022/01/17 06:27:12;;;;;;;11.85;2.90;;;;;;;-2.47;66.78;97334.91;5051987;28;20036;-69
2022/01/17 06:29:37;;;;;;;8.93;2.55;;;;;;;-2.45;66.74;97330.38;5052166;28;20033;-68
2022/01/17 06:32:04;;;;;;;7.07;2.70;;;;;;;-2.49;67.29;97331.53;5051485;28;20112;-69
2022/01/17 06:34:30;;;;;;;6.57;2.95;;;;;;;-2.42;66.60;97316.25;5051535;28;20040;-69
2022/01/17 06:36:55;;;;;;;10.15;3.28;;;;;;;-2.43;66.19;97262.16;5051413;28;20029;-70
2022/01/17 06:39:21;;;;;;;8.95;3.17;;;;;;;-2.23;66.23;97259.94;5051216;28;20029;-69
2022/01/17 06:41:46;;;;;;;6.07;2.92;;;;;;;-2.27;66.70;97230.47;5051243;28;20050;-70
2022/01/17 06:44:12;;;;;;;7.20;2.88;;;;;;;-2.17;66.79;97210.56;5051295;28;20029;-69
2022/01/17 06:46:38;;;;;;;10.13;2.95;;;;;;;-2.11;66.21;97169.13;5051946;28;20158;-69
2022/01/17 06:49:04;;;;;;;7.18;3.13;;;;;;;-2.08;65.84;97161.03;5050927;28;20485;-70
2022/01/17 06:51:29;;;;;;;8.60;3.47;;;;;;;-2.02;66.10;97165.81;5051373;28;20129;-71
2022/01/17 06:53:55;;;;;;;10.60;3.47;;;;;;;-2.09;66.08;97135.75;5050081;28;20135;-70
2022/01/17 06:56:20;;;;;;;7.28;3.30;;;;;;;-1.92;65.52;97153.75;5051059;28;20055;-70
2022/01/17 06:58:46;;;;;;;8.40;3.35;;;;;;;-1.95;65.75;97172.28;5051201;28;20029;-70
2022/01/17 07:01:13;;;;;;;7.13;3.40;;;;;;;-2.05;65.71;97145.06;5051855;28;20498;-72
2022/01/17 07:03:39;;;;;;;7.75;3.47;;;;;;;-1.91;65.98;97151.94;5051050;28;20040;-70
2022/01/17 07:06:05;;;;;;;8.80;3.33;;;;;;;-1.91;65.87;97142.28;5050969;28;20025;-69
2022/01/17 07:08:30;;;;;;;8.50;3.28;;;;;;;-1.96;66.12;97139.16;5051288;28;20039;-69
2022/01/17 07:10:56;;;;;;;7.28;3.75;;;;;;;-1.92;66.05;97152.88;5050580;28;20032;-71
2022/01/17 07:13:21;;;;;;;11.38;3.78;;;;;;;-1.87;65.65;97174.38;5051009;28;20394;-72
2022/01/17 07:15:47;;;;;;;8.70;3.28;;;;;;;-1.88;65.81;97170.91;5051280;28;20111;-70
2022/01/17 07:18:13;;;;;;;9.48;3.63;;;;;;;-1.98;65.65;97138.44;5083613;28;20119;-68
2022/01/17 07:20:39;;;;;;;8.38;3.55;;;;;;;-1.95;66.18;97146.06;5050862;28;20032;-69
2022/01/17 07:23:04;;;;;;;10.48;3.63;;;;;;;-1.92;65.97;97139.78;5051035;28;20453;-71
2022/01/17 07:25:30;;;;;;;9.35;3.80;;;;;;;-1.93;65.91;97154.69;5051322;28;20098;-72
2022/01/17 07:27:57;;;;;;;11.02;4.28;;;;;;;-1.90;65.78;97137.88;5050953;28;20060;-72
2022/01/17 07:30:23;;;;;;;12.52;3.30;;;;;;;-1.92;66.38;97131.91;5050771;28;20128;-72
2022/01/17 07:32:50;;;;;;;8.32;3.53;;;;;;;-1.90;65.73;97125.63;5033694;28;20031;-72
2022/01/17 07:35:16;;;;;;;11.35;4.28;;;;;;;-1.93;66.09;97133.72;5055041;28;20029;-73
2022/01/17 07:37:41;;;;;;;8.70;3.60;;;;;;;-1.86;65.84;97125.38;5054935;28;20470;-71
2022/01/17 07:40:08;;;;;;;11.30;3.83;;;;;;;-1.91;65.79;97134.44;5054859;28;20032;-72
2022/01/17 07:42:34;;;;;;;9.25;3.97;;;;;;;-1.92;65.83;97121.41;5055057;28;20025;-73
2022/01/17 07:45:09;;;;;;;11.07;3.20;;;;;;;-1.98;66.07;97075.50;5055951;28;20029;-72
2022/01/17 07:47:56;;;;;;;8.73;4.13;;;;;;;-1.92;65.71;97067.19;5055627;28;20021;-71
2022/01/17 07:50:25;;;;;;;8.75;3.92;;;;;;;-1.89;65.93;97072.22;5053665;28;20044;-72
2022/01/17 07:52:52;;;;;;;8.88;4.00;;;;;;;-1.85;66.11;97077.22;5055045;28;20041;-72
2022/01/17 07:55:19;;;;;;;9.88;3.88;;;;;;;-1.76;65.81;97066.88;5051062;28;20492;-72
2022/01/17 07:57:45;;;;;;;10.85;4.15;;;;;;;-1.83;65.83;97070.06;5070471;28;20061;-73
2022/01/17 08:00:23;;;;;;;10.35;4.38;;;;;;;-1.79;65.91;97071.50;5053481;28;20443;-71
2022/01/17 08:02:50;;;;;;;8.65;3.90;;;;;;;-1.73;65.17;97081.53;5054956;28;20028;-72
2022/01/17 08:05:16;;;;;;;10.02;4.18;;;;;;;-1.86;66.18;97067.69;5055169;28;20428;-74
2022/01/17 08:07:44;;;;;;;9.52;4.05;;;;;;;-1.82;66.06;97077.81;5054637;28;20032;-73
2022/01/17 08:10:13;;;;;;;13.18;4.22;;;;;;;-2.01;65.91;97036.41;5054293;28;20029;-72
2022/01/17 08:12:43;;;;;;;10.88;4.20;;;;;;;-1.74;65.83;97069.38;5053725;28;20037;-71
2022/01/17 08:15:10;;;;;;;10.73;4.28;;;;;;;-1.86;65.98;97054.56;5055065;28;20048;-70
2022/01/17 08:17:36;;;;;;;9.43;3.90;;;;;;;-1.94;66.60;97021.88;5053616;28;20063;-72
2022/01/17 08:20:03;;;;;;;14.65;4.70;;;;;;;-1.68;66.59;97042.72;5053833;28;20410;-73
2022/01/17 08:22:28;;;;;;;11.63;5.32;;;;;;;-1.69;66.16;97025.25;5054223;28;20390;-71
2022/01/17 08:24:54;;;;;;;10.40;4.38;;;;;;;-1.60;65.85;97045.56;5054551;28;20108;-71
2022/01/17 08:27:19;;;;;;;9.77;4.30;;;;;;;-1.62;65.82;97036.13;5056091;28;20437;-72
2022/01/17 08:29:45;;;;;;;15.90;4.68;;;;;;;-1.53;65.88;97042.47;5080622;28;20032;-65
2022/01/17 08:32:11;;;;;;;13.98;4.68;;;;;;;-1.62;65.26;97021.25;5054285;28;20114;-72
2022/01/17 08:34:37;;;;;;;10.40;4.50;;;;;;;-1.54;65.34;97043.44;5064136;28;20502;-69
2022/01/17 08:37:04;;;;;;;7.97;3.90;;;;;;;-1.61;65.48;97040.44;5074811;28;20059;-71
2022/01/17 08:39:30;;;;;;;12.88;4.60;;;;;;;-1.64;65.62;97041.53;5075109;28;20047;-70
2022/01/17 08:41:56;;;;;;;10.85;4.88;;;;;;;-1.63;65.11;97045.81;5075068;28;20036;-68
2022/01/17 08:44:23;;;;;;;12.45;5.45;;;;;;;-1.72;65.83;97033.38;5071041;28;20490;-66
2022/01/17 08:46:48;;;;;;;13.30;5.05;;;;;;;-1.75;65.34;97020.50;5062678;28;20097;-68
2022/01/17 08:49:15;;;;;;;12.93;4.10;;;;;;;-1.68;65.56;97047.97;5053748;28;20051;-68
2022/01/17 08:51:40;;;;;;;11.32;4.25;;;;;;;-1.79;65.25;97011.19;5053168;28;20410;-68
2022/01/17 08:54:06;;;;;;;10.93;4.55;;;;;;;-1.65;65.27;97029.34;5052957;28;20048;-70
2022/01/17 08:56:32;;;;;;;11.73;4.90;;;;;;;-1.68;65.08;97021.72;5052299;28;20053;-74
2022/01/17 08:58:59;;;;;;;9.95;4.47;;;;;;;-1.66;64.82;97022.44;5053107;28;20029;-72
2022/01/17 09:01:26;;;;;;;11.73;4.50;;;;;;;-1.72;65.37;97020.25;5052245;28;20204;-65
2022/01/17 09:03:52;;;;;;;12.18;5.20;;;;;;;-1.67;65.43;97017.28;5051392;28;20473;-65
2022/01/17 09:06:18;;;;;;;11.20;4.38;;;;;;;-1.61;65.64;97014.19;5051943;28;20466;-65
2022/01/17 09:08:43;;;;;;;11.77;4.57;;;;;;;-1.61;65.20;96998.44;5053148;28;20108;-65
2022/01/17 09:11:09;;;;;;;14.55;4.45;;;;;;;-1.58;65.17;97006.09;5053149;28;20080;-63
2022/01/17 09:13:35;;;;;;;13.85;5.18;;;;;;;-1.59;65.69;96997.41;5053101;28;20052;-63
2022/01/17 09:16:00;;;;;;;13.05;4.53;;;;;;;-1.64;65.26;97010.03;5052929;28;20028;-65
2022/01/17 09:18:26;;;;;;;11.02;5.15;;;;;;;-1.64;65.14;97002.16;5052872;28;20032;-64
2022/01/17 09:20:52;;;;;;;11.52;5.25;;;;;;;-1.61;65.51;97001.06;5053585;28;20427;-64
2022/01/17 09:23:18;;;;;;;9.90;4.95;;;;;;;-1.69;65.78;96988.53;5052972;28;20029;-63
2022/01/17 09:25:44;;;;;;;15.18;5.45;;;;;;;-1.70;65.39;96996.53;5055882;28;20029;-64
2022/01/17 09:28:10;;;;;;;12.23;5.70;;;;;;;-1.64;65.41;97002.16;5067124;28;20036;-65
2022/01/17 09:30:36;;;;;;;13.85;5.32;;;;;;;-1.65;65.75;96995.25;5072243;28;20082;-64
2022/01/17 09:33:03;;;;;;;13.90;5.68;;;;;;;-1.65;65.26;96990.00;5052774;28;20075;-64
2022/01/17 09:35:30;;;;;;;14.27;5.80;;;;;;;-1.69;65.57;96970.19;5052534;28;20115;-64
2022/01/17 09:37:56;;;;;;;14.95;5.75;;;;;;;-1.62;65.20;96967.94;5052437;28;20029;-65
2022/01/17 09:40:21;;;;;;;13.55;6.22;;;;;;;-1.69;65.87;96971.97;5052721;28;20029;-64
2022/01/17 09:42:47;;;;;;;11.55;5.07;;;;;;;-1.67;65.48;96973.56;5053286;28;20032;-65
2022/01/17 09:45:16;;;;;;;10.65;5.85;;;;;;;-1.67;65.93;96957.81;5071321;28;20036;-64
2022/01/17 09:47:43;;;;;;;16.65;5.70;;;;;;;-1.62;65.67;96952.19;5072382;28;20039;-65
2022/01/17 09:50:17;;;;;;;11.40;5.75;;;;;;;-1.65;66.44;96955.03;5072750;28;20033;-64
2022/01/17 09:52:51;;;;;;;14.10;6.13;;;;;;;-1.57;65.83;96955.28;5072234;28;20040;-63
2022/01/17 09:55:21;;;;;;;10.07;5.47;;;;;;;-1.51;65.66;96948.72;5071269;28;20102;-64
2022/01/17 09:57:55;;;;;;;16.52;5.47;;;;;;;-1.52;66.27;96944.44;5069985;28;20052;-64
2022/01/17 10:00:26;;;;;;;12.00;6.30;;;;;;;-1.47;66.11;96934.41;5070675;28;20386;-63
2022/01/17 10:02:54;;;;;;;13.98;5.82;;;;;;;-1.43;66.44;96935.88;5069630;28;20359;-64
2022/01/17 10:05:20;;;;;;;12.23;5.65;;;;;;;-1.39;65.78;96936.44;5069283;28;20021;-64
2022/01/17 10:08:02;;;;;;;15.05;5.55;;;;;;;-1.40;66.45;96930.38;5072117;28;20031;-64
2022/01/17 10:11:03;;;;;;;13.55;5.55;;;;;;;-1.35;66.07;96922.97;5072248;28;20473;-63
2022/01/17 10:13:30;;;;;;;13.45;5.72;;;;;;;-1.41;66.85;96922.59;5071713;28;20052;-63
2022/01/17 10:16:14;;;;;;;10.68;5.47;;;;;;;-1.41;66.93;96899.84;5070581;28;20021;-64
2022/01/17 10:18:46;;;;;;;17.50;8.27;;;;;;;-1.32;66.69;96900.91;5072162;28;20111;-64
2022/01/17 10:21:31;;;;;;;10.50;5.97;;;;;;;-1.26;66.17;96905.66;5055280;28;20032;-65
2022/01/17 10:29:32;;;;;;;10.80;5.50;;;;;;;-1.26;66.09;96889.06;5051343;28;20068;-64
2022/01/17 10:37:17;;;;;;;13.02;5.95;;;;;;;-1.14;65.65;96882.84;5051622;28;20048;-65
2022/01/17 10:39:54;;;;;;;13.20;6.18;;;;;;;-1.14;66.16;96869.72;5052167;28;20479;-63
2022/01/17 10:42:29;;;;;;;12.77;6.65;;;;;;;-1.16;65.84;96863.75;5051647;28;20067;-64
2022/01/17 10:45:01;;;;;;;12.63;6.30;;;;;;;-1.09;65.87;96866.69;5051172;28;20036;-65
2022/01/17 10:47:28;;;;;;;11.90;6.53;;;;;;;-1.14;65.78;96853.13;5051038;28;20028;-64
2022/01/17 10:49:58;;;;;;;16.48;7.78;;;;;;;-1.19;66.29;96854.31;5051298;28;20033;-64
2022/01/17 10:52:37;;;;;;;17.85;6.72;;;;;;;-1.12;65.61;96854.66;5051132;28;20395;-64
2022/01/17 10:55:05;;;;;;;15.38;7.30;;;;;;;-1.16;65.91;96871.63;5050968;28;20037;-64
2022/01/17 10:57:40;;;;;;;13.05;6.60;;;;;;;-1.11;65.80;96872.09;5049960;28;20383;-65
2022/01/17 11:00:12;;;;;;;12.68;6.55;;;;;;;-1.09;66.45;96861.44;5051390;28;20037;-63
2022/01/17 11:02:40;;;;;;;15.38;6.85;;;;;;;-1.08;66.36;96853.47;5050986;28;20044;-63
2022/01/17 11:05:07;;;;;;;15.88;7.50;;;;;;;-1.06;66.60;96851.53;5050911;28;20024;-64
2022/01/17 11:07:41;;;;;;;19.95;7.50;;;;;;;-0.96;66.20;96853.44;5056956;28;20029;-64
2022/01/17 11:10:17;;;;;;;15.10;7.78;;;;;;;-0.92;65.84;96845.16;5070784;28;20115;-65
2022/01/17 11:12:42;;;;;;;17.67;7.68;;;;;;;-0.88;65.92;96851.00;5070195;28;20040;-63
2022/01/17 11:15:10;;;;;;;16.58;7.88;;;;;;;-0.86;66.11;96849.09;5069458;28;20024;-64
2022/01/17 11:17:46;;;;;;;14.90;7.40;;;;;;;-0.88;65.43;96843.13;5071182;28;20512;-63
2022/01/17 11:20:12;;;;;;;16.98;7.30;;;;;;;-0.79;65.65;96839.72;5062834;28;20029;-64
2022/01/17 11:22:41;;;;;;;15.20;7.05;;;;;;;-0.78;65.26;96841.41;5049557;28;20059;-63
2022/01/17 11:25:13;;;;;;;16.38;7.60;;;;;;;-0.83;65.04;96833.06;5051111;28;20045;-65
2022/01/17 11:27:39;;;;;;;18.10;8.07;;;;;;;-0.85;65.88;96835.00;5061611;28;20035;-64
2022/01/17 11:30:06;;;;;;;15.15;7.40;;;;;;;-0.87;65.58;96826.41;5068094;28;20035;-63
2022/01/17 11:32:32;;;;;;;20.10;7.97;;;;;;;-0.85;65.45;96834.13;5070744;28;20086;-64
2022/01/17 11:35:00;;;;;;;15.32;7.70;;;;;;;-0.79;65.20;96823.97;5071254;28;20037;-63
2022/01/17 11:37:26;;;;;;;16.65;7.00;;;;;;;-0.96;65.78;96777.28;5071029;28;20040;-64
2022/01/17 11:39:55;;;;;;;17.20;7.43;;;;;;;-0.80;65.31;96805.72;5086343;28;20386;-63
2022/01/17 11:42:32;;;;;;;17.10;7.93;;;;;;;-0.75;65.58;96808.81;5070826;28;20028;-63
2022/01/17 11:44:58;;;;;;;16.45;7.60;;;;;;;-0.77;65.17;96803.66;5069761;28;20033;-64
2022/01/17 11:47:47;;;;;;;16.17;8.43;;;;;;;-0.75;65.25;96799.09;5070982;28;20043;-66
2022/01/17 11:50:44;;;;;;;16.38;8.00;;;;;;;-0.73;65.74;96802.44;5069100;28;20031;-64
2022/01/17 11:53:09;;;;;;;16.98;8.68;;;;;;;-0.76;65.11;96791.38;5070417;28;20048;-64
2022/01/17 11:55:44;;;;;;;15.82;7.68;;;;;;;-0.74;65.59;96794.69;5071024;28;20041;-62
2022/01/17 11:58:26;;;;;;;14.82;7.38;;;;;;;-0.76;65.70;96784.31;5070047;28;20048;-64
2022/01/17 12:00:59;;;;;;;18.17;8.60;;;;;;;-0.69;65.27;96786.44;5069984;28;20028;-64
2022/01/17 12:03:31;;;;;;;16.77;8.15;;;;;;;-0.70;65.21;96788.22;5103607;28;20032;-64
2022/01/17 12:06:16;;;;;;;15.00;7.85;;;;;;;-0.78;65.60;96778.34;5103906;28;20059;-63